createdAt,value
2017-01-19T00:00:02.706Z,0
2017-01-19T00:01:02.769Z,0
2017-01-19T00:02:02.820Z,0
2017-01-19T00:03:02.868Z,0
2017-01-19T00:04:02.925Z,0
2017-01-19T00:05:02.978Z,0
2017-01-19T00:06:03.035Z,0
2017-01-19T00:07:03.102Z,0
2017-01-19T00:08:03.140Z,0
2017-01-19T00:09:03.208Z,0
2017-01-19T00:10:03.253Z,0
2017-01-19T00:11:03.295Z,0
2017-01-19T00:12:03.353Z,0
2017-01-19T00:13:03.422Z,0
2017-01-19T00:14:03.458Z,0
2017-01-19T00:15:03.528Z,0
2017-01-19T00:16:03.572Z,0
2017-01-19T00:17:03.622Z,0
2017-01-19T00:18:03.675Z,0
2017-01-19T00:19:03.741Z,0
2017-01-19T00:20:03.789Z,0
2017-01-19T00:21:03.854Z,0
2017-01-19T00:22:03.940Z,0
2017-01-19T00:23:03.957Z,0
2017-01-19T00:24:04.009Z,0
2017-01-19T00:25:04.064Z,0
2017-01-19T00:26:04.118Z,0
2017-01-19T00:27:04.172Z,0
2017-01-19T00:28:04.251Z,0
2017-01-19T00:29:04.275Z,0
2017-01-19T00:30:04.347Z,0
2017-01-19T00:31:04.400Z,0
2017-01-19T00:32:04.432Z,0
2017-01-19T00:33:04.483Z,0
2017-01-19T00:34:04.543Z,0
2017-01-19T00:35:04.618Z,0
2017-01-19T00:36:04.669Z,0
2017-01-19T00:37:04.715Z,0
2017-01-19T00:38:04.772Z,0
2017-01-19T00:39:04.827Z,0
2017-01-19T00:40:05.245Z,0
2017-01-19T00:41:04.920Z,0
2017-01-19T00:42:04.982Z,0
2017-01-19T00:43:05.033Z,0
2017-01-19T00:44:05.483Z,0
2017-01-19T00:45:05.143Z,0
2017-01-19T00:46:05.195Z,0
2017-01-19T00:47:05.278Z,0
2017-01-19T00:48:05.304Z,0
2017-01-19T00:49:05.366Z,0
2017-01-19T00:50:05.421Z,0
2017-01-19T00:51:05.464Z,0
2017-01-19T00:52:05.519Z,0
2017-01-19T00:53:05.581Z,0
2017-01-19T00:54:05.632Z,0
2017-01-19T00:55:05.694Z,0
2017-01-19T00:56:05.737Z,0
2017-01-19T00:57:05.793Z,0
2017-01-19T00:58:05.863Z,0
2017-01-19T00:59:06.284Z,0
2017-01-19T01:00:05.955Z,0
2017-01-19T01:01:06.019Z,0
2017-01-19T01:02:06.071Z,0
2017-01-19T01:03:06.119Z,0
2017-01-19T01:04:06.189Z,0
2017-01-19T01:05:06.225Z,0
2017-01-19T01:06:06.295Z,0
2017-01-19T01:07:06.337Z,0
2017-01-19T01:08:06.395Z,0
2017-01-19T01:09:06.455Z,0
2017-01-19T01:10:06.501Z,0
2017-01-19T01:11:06.559Z,0
2017-01-19T01:12:06.602Z,0
2017-01-19T01:13:06.666Z,0
2017-01-19T01:14:06.727Z,0
2017-01-19T01:15:06.787Z,0
2017-01-19T01:16:06.821Z,0
2017-01-19T01:17:06.886Z,0
2017-01-19T01:18:06.923Z,0
2017-01-19T01:19:07.010Z,0
2017-01-19T01:20:07.050Z,0
2017-01-19T01:21:07.113Z,0
2017-01-19T01:22:07.158Z,0
2017-01-19T01:23:07.202Z,0
2017-01-19T01:24:07.257Z,0
2017-01-19T01:25:07.318Z,0
2017-01-19T01:26:07.764Z,0
2017-01-19T01:27:07.424Z,0
2017-01-19T01:28:07.466Z,0
2017-01-19T01:29:07.524Z,0
2017-01-19T01:30:07.601Z,0
2017-01-19T01:31:07.632Z,0
2017-01-19T01:32:07.704Z,0
2017-01-19T01:33:07.745Z,0
2017-01-19T01:34:07.807Z,0
2017-01-19T01:35:07.859Z,0
2017-01-19T01:36:07.922Z,0
2017-01-19T01:37:07.958Z,0
2017-01-19T01:38:08.028Z,0
2017-01-19T01:39:08.087Z,0
2017-01-19T01:40:08.124Z,0
2017-01-19T01:41:08.217Z,0
2017-01-19T01:42:08.255Z,0
2017-01-19T01:43:08.311Z,0
2017-01-19T01:44:08.344Z,0
2017-01-19T01:45:08.400Z,0
2017-01-19T01:46:08.461Z,0
2017-01-19T01:47:08.510Z,0
2017-01-19T01:48:08.571Z,0
2017-01-19T01:49:08.618Z,0
2017-01-19T01:50:09.054Z,0
2017-01-19T01:51:08.733Z,0
2017-01-19T01:52:08.780Z,0
2017-01-19T01:53:08.841Z,0
2017-01-19T01:54:08.893Z,0
2017-01-19T01:55:08.958Z,0
2017-01-19T01:56:09.014Z,0
2017-01-19T01:57:09.060Z,0
2017-01-19T01:58:09.116Z,0
2017-01-19T01:59:09.168Z,0
2017-01-19T02:00:09.225Z,0
2017-01-19T02:01:09.281Z,0
2017-01-19T02:02:09.353Z,0
2017-01-19T02:03:09.382Z,0
2017-01-19T02:04:09.862Z,0
2017-01-19T02:05:09.497Z,0
2017-01-19T02:06:09.547Z,0
2017-01-19T02:07:09.605Z,0
2017-01-19T02:08:09.647Z,0
2017-01-19T02:09:09.720Z,0
2017-01-19T02:10:09.774Z,0
2017-01-19T02:11:09.825Z,0
2017-01-19T02:12:09.881Z,0
2017-01-19T02:13:09.937Z,0
2017-01-19T02:14:09.986Z,0
2017-01-19T02:15:10.035Z,0
2017-01-19T02:16:10.084Z,0
2017-01-19T02:17:10.153Z,0
2017-01-19T02:18:10.192Z,0
2017-01-19T02:19:10.251Z,0
2017-01-19T02:20:10.314Z,0
2017-01-19T02:21:10.371Z,0
2017-01-19T02:22:10.417Z,0
2017-01-19T02:23:10.472Z,0
2017-01-19T02:24:10.527Z,0
2017-01-19T02:25:10.605Z,0
2017-01-19T02:26:10.643Z,0
2017-01-19T02:27:10.680Z,0
2017-01-19T02:28:10.760Z,0
2017-01-19T02:29:10.796Z,0
2017-01-19T02:30:10.855Z,0
2017-01-19T02:31:10.918Z,0
2017-01-19T02:32:10.960Z,0
2017-01-19T02:33:11.415Z,0
2017-01-19T02:34:11.082Z,0
2017-01-19T02:35:11.129Z,0
2017-01-19T02:36:11.162Z,0
2017-01-19T02:37:11.240Z,0
2017-01-19T02:38:11.278Z,0
2017-01-19T02:39:11.337Z,0
2017-01-19T02:40:11.385Z,0
2017-01-19T02:41:11.890Z,0
2017-01-19T02:42:11.513Z,0
2017-01-19T02:43:11.552Z,0
2017-01-19T02:44:11.624Z,0
2017-01-19T02:45:11.681Z,0
2017-01-19T02:46:11.727Z,0
2017-01-19T02:47:11.784Z,0
2017-01-19T02:48:12.214Z,0
2017-01-19T02:49:11.911Z,0
2017-01-19T02:50:11.946Z,0
2017-01-19T02:51:11.990Z,0
2017-01-19T02:52:12.050Z,0
2017-01-19T02:53:12.111Z,0
2017-01-19T02:54:12.151Z,0
2017-01-19T02:55:12.205Z,0
2017-01-19T02:56:12.258Z,0
2017-01-19T02:57:12.320Z,0
2017-01-19T02:58:12.367Z,0
2017-01-19T02:59:12.420Z,0
2017-01-19T03:00:12.486Z,0
2017-01-19T03:01:12.535Z,0
2017-01-19T03:02:12.584Z,0
2017-01-19T03:03:12.654Z,0
2017-01-19T03:04:12.697Z,0
2017-01-19T03:05:12.763Z,0
2017-01-19T03:06:12.809Z,0
2017-01-19T03:07:12.853Z,0
2017-01-19T03:08:12.919Z,0
2017-01-19T03:09:12.976Z,0
2017-01-19T03:10:13.025Z,0
2017-01-19T03:11:13.471Z,0
2017-01-19T03:12:13.143Z,0
2017-01-19T03:13:13.190Z,0
2017-01-19T03:14:13.256Z,0
2017-01-19T03:15:13.315Z,0
2017-01-19T03:16:13.356Z,0
2017-01-19T03:17:13.406Z,0
2017-01-19T03:18:13.467Z,0
2017-01-19T03:19:13.505Z,0
2017-01-19T03:20:13.584Z,0
2017-01-19T03:21:13.627Z,0
2017-01-19T03:22:13.689Z,0
2017-01-19T03:23:13.736Z,0
2017-01-19T03:24:13.796Z,0
2017-01-19T03:25:13.840Z,0
2017-01-19T03:26:13.901Z,0
2017-01-19T03:27:13.966Z,0
2017-01-19T03:28:14.014Z,0
2017-01-19T03:29:14.066Z,0
2017-01-19T03:30:14.130Z,0
2017-01-19T03:31:14.174Z,0
2017-01-19T03:32:14.225Z,0
2017-01-19T03:33:14.278Z,0
2017-01-19T03:34:14.328Z,0
2017-01-19T03:35:14.402Z,0
2017-01-19T03:36:14.448Z,0
2017-01-19T03:37:14.503Z,0
2017-01-19T03:38:14.566Z,0
2017-01-19T03:39:14.603Z,0
2017-01-19T03:40:14.655Z,0
2017-01-19T03:41:14.709Z,0
2017-01-19T03:42:14.766Z,0
2017-01-19T03:43:14.828Z,0
2017-01-19T03:44:14.878Z,0
2017-01-19T03:45:14.938Z,0
2017-01-19T03:46:14.988Z,0
2017-01-19T03:47:15.039Z,0
2017-01-19T03:48:15.089Z,0
2017-01-19T03:49:15.154Z,0
2017-01-19T03:50:15.211Z,0
2017-01-19T03:51:15.262Z,0
2017-01-19T03:52:15.308Z,0
2017-01-19T03:53:15.366Z,0
2017-01-19T03:54:15.419Z,0
2017-01-19T03:55:15.489Z,0
2017-01-19T03:56:15.554Z,0
2017-01-19T03:57:15.583Z,0
2017-01-19T03:58:15.640Z,0
2017-01-19T03:59:15.694Z,0
2017-01-19T04:00:15.748Z,0
2017-01-19T04:01:15.799Z,0
2017-01-19T04:02:15.847Z,0
2017-01-19T04:03:15.911Z,0
2017-01-19T04:04:15.957Z,0
2017-01-19T04:05:16.025Z,0
2017-01-19T04:06:16.067Z,0
2017-01-19T04:07:16.120Z,0
2017-01-19T04:08:16.179Z,0
2017-01-19T04:09:16.245Z,0
2017-01-19T04:10:16.290Z,0
2017-01-19T04:11:16.347Z,0
2017-01-19T04:12:16.397Z,0
2017-01-19T04:13:16.452Z,0
2017-01-19T04:14:16.499Z,0
2017-01-19T04:15:16.561Z,0
2017-01-19T04:16:16.629Z,0
2017-01-19T04:17:16.679Z,0
2017-01-19T04:18:16.713Z,0
2017-01-19T04:19:16.767Z,0
2017-01-19T04:20:16.814Z,0
2017-01-19T04:21:16.885Z,0
2017-01-19T04:22:16.939Z,0
2017-01-19T04:23:16.981Z,0
2017-01-19T04:24:17.047Z,0
2017-01-19T04:25:17.097Z,0
2017-01-19T04:26:17.144Z,0
2017-01-19T04:27:17.205Z,0
2017-01-19T04:28:17.264Z,0
2017-01-19T04:29:17.314Z,0
2017-01-19T04:30:17.374Z,0
2017-01-19T04:31:17.431Z,0
2017-01-19T04:32:17.477Z,0
2017-01-19T04:33:17.525Z,0
2017-01-19T04:34:17.571Z,0
2017-01-19T04:35:17.638Z,0
2017-01-19T04:36:17.688Z,0
2017-01-19T04:37:17.748Z,0
2017-01-19T04:38:17.802Z,0
2017-01-19T04:39:17.849Z,0
2017-01-19T04:40:17.903Z,0
2017-01-19T04:41:17.968Z,0
2017-01-19T04:42:18.024Z,0
2017-01-19T04:43:18.074Z,0
2017-01-19T04:44:18.126Z,0
2017-01-19T04:45:18.186Z,0
2017-01-19T04:46:18.238Z,0
2017-01-19T04:47:18.284Z,0
2017-01-19T04:48:18.335Z,0
2017-01-19T04:49:18.397Z,0
2017-01-19T04:50:18.453Z,0
2017-01-19T04:51:18.503Z,0
2017-01-19T04:52:18.552Z,0
2017-01-19T04:53:18.613Z,0
2017-01-19T04:54:18.661Z,0
2017-01-19T04:55:18.725Z,0
2017-01-19T04:56:18.786Z,0
2017-01-19T04:57:18.824Z,0
2017-01-19T04:58:18.888Z,0
2017-01-19T04:59:18.928Z,0
2017-01-19T05:00:18.980Z,0
2017-01-19T05:01:19.047Z,0
2017-01-19T05:02:19.094Z,0
2017-01-19T05:03:19.152Z,0
2017-01-19T05:04:19.215Z,0
2017-01-19T05:05:19.260Z,0
2017-01-19T05:06:19.318Z,0
2017-01-19T05:07:19.369Z,0
2017-01-19T05:08:19.427Z,0
2017-01-19T05:09:19.482Z,0
2017-01-19T05:10:19.524Z,0
2017-01-19T05:11:19.582Z,0
2017-01-19T05:12:19.628Z,0
2017-01-19T05:13:19.682Z,0
2017-01-19T05:14:19.741Z,0
2017-01-19T05:15:19.795Z,0
2017-01-19T05:16:19.855Z,0
2017-01-19T05:17:19.903Z,0
2017-01-19T05:18:19.954Z,0
2017-01-19T05:19:20.010Z,0
2017-01-19T05:20:20.058Z,0
2017-01-19T05:21:20.113Z,0
2017-01-19T05:22:20.164Z,0
2017-01-19T05:23:20.632Z,0
2017-01-19T05:24:20.283Z,0
2017-01-19T05:25:20.319Z,0
2017-01-19T05:26:20.379Z,0
2017-01-19T05:27:20.810Z,0
2017-01-19T05:28:20.488Z,0
2017-01-19T05:29:20.544Z,0
2017-01-19T05:30:20.598Z,0
2017-01-19T05:31:20.649Z,0
2017-01-19T05:32:20.715Z,0
2017-01-19T05:33:20.770Z,0
2017-01-19T05:34:20.819Z,0
2017-01-19T05:35:20.863Z,0
2017-01-19T05:36:20.908Z,0
2017-01-19T05:37:20.973Z,0
2017-01-19T05:38:21.038Z,0
2017-01-19T05:39:21.189Z,0
2017-01-19T05:40:21.133Z,0
2017-01-19T05:41:21.192Z,0
2017-01-19T05:42:21.254Z,0
2017-01-19T05:43:21.297Z,0
2017-01-19T05:44:21.358Z,0
2017-01-19T05:45:21.404Z,0
2017-01-19T05:46:21.460Z,0
2017-01-19T05:47:21.513Z,0
2017-01-19T05:48:21.592Z,0
2017-01-19T05:49:21.632Z,0
2017-01-19T05:50:21.685Z,0
2017-01-19T05:51:21.730Z,0
2017-01-19T05:52:21.767Z,0
2017-01-19T05:53:21.844Z,0
2017-01-19T05:54:21.891Z,0
2017-01-19T05:55:21.937Z,0
2017-01-19T05:56:22.005Z,0
2017-01-19T05:57:22.056Z,0
2017-01-19T05:58:22.106Z,0
2017-01-19T05:59:22.177Z,0
2017-01-19T06:00:22.206Z,0
2017-01-19T06:01:22.267Z,0
2017-01-19T06:02:22.331Z,0
2017-01-19T06:03:22.381Z,0
2017-01-19T06:04:22.429Z,0
2017-01-19T06:05:22.489Z,0
2017-01-19T06:06:22.543Z,0
2017-01-19T06:07:22.586Z,0
2017-01-19T06:08:22.650Z,0
2017-01-19T06:09:22.711Z,0
2017-01-19T06:10:22.759Z,0
2017-01-19T06:11:22.817Z,0
2017-01-19T06:12:22.865Z,0
2017-01-19T06:13:22.921Z,0
2017-01-19T06:14:22.975Z,0
2017-01-19T06:15:23.035Z,0
2017-01-19T06:16:23.076Z,0
2017-01-19T06:17:23.148Z,0
2017-01-19T06:18:23.198Z,0
2017-01-19T06:19:23.246Z,0
2017-01-19T06:20:23.325Z,0
2017-01-19T06:21:23.360Z,0
2017-01-19T06:22:23.396Z,0
2017-01-19T06:23:23.467Z,0
2017-01-19T06:24:23.517Z,0
2017-01-19T06:25:23.565Z,0
2017-01-19T06:26:23.620Z,0
2017-01-19T06:27:23.672Z,0
2017-01-19T06:28:23.739Z,0
2017-01-19T06:29:23.782Z,0
2017-01-19T06:30:23.839Z,0
2017-01-19T06:31:23.897Z,0
2017-01-19T06:32:23.948Z,0
2017-01-19T06:33:23.998Z,0
2017-01-19T06:34:24.054Z,0
2017-01-19T06:35:24.140Z,0
2017-01-19T06:36:24.156Z,0
2017-01-19T06:37:24.220Z,0
2017-01-19T06:38:24.272Z,0
2017-01-19T06:39:24.330Z,0
2017-01-19T06:40:24.380Z,0
2017-01-19T06:41:24.420Z,0
2017-01-19T06:42:24.496Z,0
2017-01-19T06:43:24.529Z,0
2017-01-19T06:44:24.597Z,0
2017-01-19T06:45:24.641Z,0
2017-01-19T06:46:24.714Z,0
2017-01-19T06:47:24.752Z,0
2017-01-19T06:48:25.195Z,0
2017-01-19T06:49:24.882Z,0
2017-01-19T06:50:24.916Z,0
2017-01-19T06:51:24.965Z,0
2017-01-19T06:52:25.010Z,0
2017-01-19T06:53:25.067Z,0
2017-01-19T06:54:25.338Z,0
2017-01-19T06:55:25.184Z,0
2017-01-19T06:56:25.245Z,0
2017-01-19T06:57:25.285Z,0
2017-01-19T06:58:25.340Z,5
2017-01-19T06:59:25.412Z,5
2017-01-19T07:00:25.458Z,5
2017-01-19T07:01:25.520Z,5
2017-01-19T07:02:25.963Z,5
2017-01-19T07:03:25.996Z,5
2017-01-19T07:04:25.675Z,5
2017-01-19T07:05:25.753Z,5
2017-01-19T07:06:25.786Z,10
2017-01-19T07:07:25.846Z,10
2017-01-19T07:08:25.897Z,10
2017-01-19T07:09:25.948Z,10
2017-01-19T07:10:25.994Z,10
2017-01-19T07:11:26.058Z,10
2017-01-19T07:12:26.132Z,10
2017-01-19T07:13:26.168Z,10
2017-01-19T07:14:26.222Z,15
2017-01-19T07:15:26.279Z,15
2017-01-19T07:16:26.333Z,15
2017-01-19T07:17:26.373Z,15
2017-01-19T07:18:26.429Z,15
2017-01-19T07:19:26.484Z,15
2017-01-19T07:20:26.547Z,20
2017-01-19T07:21:26.803Z,20
2017-01-19T07:22:26.651Z,20
2017-01-19T07:23:26.708Z,20
2017-01-19T07:24:26.768Z,20
2017-01-19T07:25:26.812Z,20
2017-01-19T07:26:26.869Z,25
2017-01-19T07:27:26.930Z,25
2017-01-19T07:28:26.993Z,25
2017-01-19T07:29:27.044Z,25
2017-01-19T07:30:27.083Z,25
2017-01-19T07:31:27.136Z,25
2017-01-19T07:32:27.185Z,25
2017-01-19T07:33:27.257Z,25
2017-01-19T07:34:27.307Z,25
2017-01-19T07:35:27.366Z,25
2017-01-19T07:36:27.419Z,30
2017-01-19T07:37:27.476Z,30
2017-01-19T07:38:27.529Z,30
2017-01-19T07:39:27.585Z,30
2017-01-19T07:40:27.644Z,30
2017-01-19T07:41:27.684Z,30
2017-01-19T07:42:27.750Z,35
2017-01-19T07:43:27.810Z,35
2017-01-19T07:44:27.841Z,35
2017-01-19T07:45:27.910Z,35
2017-01-19T07:46:27.947Z,35
2017-01-19T07:47:28.012Z,35
2017-01-19T07:48:28.280Z,35
2017-01-19T07:49:28.310Z,40
2017-01-19T07:50:28.169Z,40
2017-01-19T07:51:28.233Z,40
2017-01-19T07:52:28.281Z,40
2017-01-19T07:53:28.339Z,40
2017-01-19T07:54:28.390Z,40
2017-01-19T07:55:28.437Z,40
2017-01-19T07:56:28.510Z,40
2017-01-19T07:57:28.565Z,45
2017-01-19T07:58:28.616Z,45
2017-01-19T07:59:28.672Z,45
2017-01-19T08:00:28.732Z,45
2017-01-19T08:01:28.807Z,45
2017-01-19T08:02:28.821Z,45
2017-01-19T08:03:28.897Z,45
2017-01-19T08:04:28.933Z,45
2017-01-19T08:05:28.993Z,45
2017-01-19T08:06:29.039Z,50
2017-01-19T08:07:29.094Z,50
2017-01-19T08:08:29.160Z,50
2017-01-19T08:09:29.206Z,50
2017-01-19T08:10:29.258Z,50
2017-01-19T08:11:29.324Z,50
2017-01-19T08:12:29.381Z,50
2017-01-19T08:13:29.426Z,50
2017-01-19T08:14:29.486Z,50
2017-01-19T08:15:29.539Z,55
2017-01-19T08:16:29.802Z,55
2017-01-19T08:17:29.639Z,55
2017-01-19T08:18:29.694Z,55
2017-01-19T08:19:29.739Z,60
2017-01-19T08:20:29.803Z,60
2017-01-19T08:21:29.870Z,65
2017-01-19T08:22:29.919Z,65
2017-01-19T08:23:29.957Z,70
2017-01-19T08:24:30.021Z,70
2017-01-19T08:25:30.076Z,70
2017-01-19T08:26:30.126Z,70
2017-01-19T08:27:30.189Z,70
2017-01-19T08:28:30.232Z,65
2017-01-19T08:29:30.295Z,65
2017-01-19T08:30:30.347Z,70
2017-01-19T08:31:30.393Z,90
2017-01-19T08:32:30.451Z,100
2017-01-19T08:33:30.510Z,80
2017-01-19T08:34:30.566Z,70
2017-01-19T08:35:30.645Z,65
2017-01-19T08:36:30.683Z,65
2017-01-19T08:37:30.741Z,65
2017-01-19T08:38:30.777Z,65
2017-01-19T08:39:30.834Z,65
2017-01-19T08:40:30.891Z,65
2017-01-19T08:41:30.939Z,65
2017-01-19T08:42:31.382Z,65
2017-01-19T08:43:31.047Z,65
2017-01-19T08:44:31.097Z,65
2017-01-19T08:45:31.360Z,65
2017-01-19T08:46:31.220Z,65
2017-01-19T08:47:31.474Z,65
2017-01-19T08:48:31.319Z,65
2017-01-19T08:49:31.388Z,65
2017-01-19T08:50:31.435Z,65
2017-01-19T08:51:31.488Z,65
2017-01-19T08:52:31.562Z,65
2017-01-19T08:53:31.590Z,70
2017-01-19T08:54:31.654Z,70
2017-01-19T08:55:31.703Z,70
2017-01-19T08:56:31.760Z,70
2017-01-19T08:57:31.808Z,70
2017-01-19T08:58:31.893Z,70
2017-01-19T08:59:31.920Z,70
2017-01-19T09:00:31.964Z,70
2017-01-19T09:01:32.031Z,75
2017-01-19T09:02:32.084Z,75
2017-01-19T09:03:32.144Z,75
2017-01-19T09:04:32.200Z,75
2017-01-19T09:05:32.236Z,75
2017-01-19T09:06:32.291Z,75
2017-01-19T09:07:32.356Z,75
2017-01-19T09:08:32.408Z,75
2017-01-19T09:09:32.465Z,75
2017-01-19T09:10:32.518Z,75
2017-01-19T09:11:32.562Z,75
2017-01-19T09:12:32.635Z,75
2017-01-19T09:13:32.689Z,75
2017-01-19T09:14:32.927Z,80
2017-01-19T09:15:32.788Z,80
2017-01-19T09:16:32.853Z,80
2017-01-19T09:17:32.901Z,80
2017-01-19T09:18:32.948Z,80
2017-01-19T09:19:33.007Z,80
2017-01-19T09:20:33.067Z,80
2017-01-19T09:21:33.115Z,80
2017-01-19T09:22:33.177Z,85
2017-01-19T09:23:33.237Z,85
2017-01-19T09:24:33.293Z,85
2017-01-19T09:25:33.353Z,85
2017-01-19T09:26:33.395Z,90
2017-01-19T09:27:33.447Z,90
2017-01-19T09:28:33.496Z,90
2017-01-19T09:29:33.561Z,90
2017-01-19T09:30:33.607Z,90
2017-01-19T09:31:33.672Z,90
2017-01-19T09:32:33.720Z,95
2017-01-19T09:33:33.784Z,95
2017-01-19T09:34:33.824Z,95
2017-01-19T09:35:33.888Z,95
2017-01-19T09:36:33.935Z,100
2017-01-19T09:37:34.028Z,100
2017-01-19T09:38:34.055Z,100
2017-01-19T09:39:34.104Z,105
2017-01-19T09:40:34.928Z,110
2017-01-19T09:41:34.210Z,110
2017-01-19T09:42:34.261Z,115
2017-01-19T09:43:34.501Z,120
2017-01-19T09:44:34.378Z,125
2017-01-19T09:45:34.442Z,135
2017-01-19T09:46:34.490Z,190
2017-01-19T09:47:34.550Z,530
2017-01-19T09:48:34.599Z,770
2017-01-19T09:49:34.653Z,770
2017-01-19T09:50:34.714Z,895
2017-01-19T09:51:34.761Z,885
2017-01-19T09:52:34.816Z,650
2017-01-19T09:53:34.871Z,525
2017-01-19T09:54:35.035Z,545
2017-01-19T09:55:34.990Z,590
2017-01-19T09:56:35.043Z,675
2017-01-19T09:57:35.100Z,770
2017-01-19T09:58:35.147Z,965
2017-01-19T09:59:35.201Z,1105
2017-01-19T10:00:35.276Z,935
2017-01-19T10:01:35.309Z,755
2017-01-19T10:02:35.371Z,875
2017-01-19T10:03:35.418Z,1030
2017-01-19T10:04:35.486Z,1140
2017-01-19T10:05:35.545Z,1005
2017-01-19T10:06:35.586Z,885
2017-01-19T10:07:35.634Z,945
2017-01-19T10:08:35.705Z,905
2017-01-19T10:09:35.755Z,925
2017-01-19T10:10:35.822Z,1045
2017-01-19T10:11:36.073Z,1400
2017-01-19T10:12:36.132Z,1840
2017-01-19T10:13:36.010Z,1535
2017-01-19T10:14:36.026Z,1050
2017-01-19T10:15:36.085Z,810
2017-01-19T10:16:36.147Z,740
2017-01-19T10:17:36.186Z,775
2017-01-19T10:18:36.277Z,805
2017-01-19T10:19:36.304Z,955
2017-01-19T10:20:36.361Z,1405
2017-01-19T10:21:36.410Z,1720
2017-01-19T10:22:36.471Z,1390
2017-01-19T10:23:36.527Z,1125
2017-01-19T10:24:36.591Z,1115
2017-01-19T10:25:36.639Z,1140
2017-01-19T10:26:36.691Z,1235
2017-01-19T10:27:36.750Z,1220
2017-01-19T10:28:36.811Z,1040
2017-01-19T10:29:36.865Z,1180
2017-01-19T10:30:36.921Z,1345
2017-01-19T10:31:36.975Z,1010
2017-01-19T10:32:37.026Z,675
2017-01-19T10:33:37.092Z,645
2017-01-19T10:34:37.136Z,660
2017-01-19T10:35:37.181Z,615
2017-01-19T10:36:37.250Z,600
2017-01-19T10:37:37.296Z,635
2017-01-19T10:38:37.358Z,645
2017-01-19T10:39:37.416Z,730
2017-01-19T10:40:37.483Z,1235
2017-01-19T10:41:37.527Z,2000
2017-01-19T10:42:37.576Z,2200
2017-01-19T10:43:37.642Z,1510
2017-01-19T10:44:37.700Z,740
2017-01-19T10:45:37.747Z,605
2017-01-19T10:46:37.802Z,600
2017-01-19T10:47:37.864Z,605
2017-01-19T10:48:37.923Z,820
2017-01-19T10:49:37.976Z,1230
2017-01-19T10:50:38.031Z,1600
2017-01-19T10:51:38.084Z,1500
2017-01-19T10:52:38.141Z,1330
2017-01-19T10:53:38.187Z,1365
2017-01-19T10:54:38.248Z,1280
2017-01-19T10:55:38.302Z,1240
2017-01-19T10:56:38.358Z,1260
2017-01-19T10:57:38.419Z,1295
2017-01-19T10:58:38.471Z,1360
2017-01-19T10:59:38.530Z,1300
2017-01-19T11:00:38.596Z,1165
2017-01-19T11:01:38.636Z,1190
2017-01-19T11:02:38.700Z,1185
2017-01-19T11:03:38.757Z,1055
2017-01-19T11:04:38.808Z,1025
2017-01-19T11:05:38.866Z,1125
2017-01-19T11:06:38.912Z,1220
2017-01-19T11:07:38.979Z,1280
2017-01-19T11:08:39.037Z,1175
2017-01-19T11:09:39.093Z,995
2017-01-19T11:10:39.138Z,980
2017-01-19T11:11:39.198Z,1285
2017-01-19T11:12:39.259Z,1745
2017-01-19T11:13:39.313Z,1830
2017-01-19T11:14:39.367Z,1635
2017-01-19T11:15:39.416Z,1660
2017-01-19T11:16:39.473Z,1595
2017-01-19T11:17:39.536Z,1385
2017-01-19T11:18:39.573Z,1360
2017-01-19T11:19:39.629Z,1320
2017-01-19T11:20:39.693Z,1300
2017-01-19T11:21:39.761Z,1235
2017-01-19T11:22:39.808Z,1220
2017-01-19T11:23:39.860Z,1220
2017-01-19T11:24:39.925Z,1160
2017-01-19T11:25:39.980Z,1180
2017-01-19T11:26:40.030Z,1200
2017-01-19T11:27:40.086Z,1220
2017-01-19T11:28:40.138Z,1190
2017-01-19T11:29:40.202Z,1140
2017-01-19T11:30:40.259Z,1150
2017-01-19T11:31:40.410Z,1165
2017-01-19T11:32:40.359Z,1175
2017-01-19T11:33:40.430Z,1160
2017-01-19T11:34:40.472Z,1160
2017-01-19T11:35:40.530Z,1150
2017-01-19T11:36:40.589Z,1150
2017-01-19T11:37:40.654Z,1155
2017-01-19T11:38:40.698Z,1130
2017-01-19T11:39:40.760Z,1160
2017-01-19T11:40:40.810Z,1170
2017-01-19T11:41:40.865Z,1140
2017-01-19T11:42:40.934Z,1135
2017-01-19T11:43:40.987Z,1120
2017-01-19T11:44:41.025Z,1160
2017-01-19T11:45:41.089Z,1180
2017-01-19T11:46:41.146Z,1140
2017-01-19T11:47:41.239Z,1195
2017-01-19T11:48:41.246Z,1265
2017-01-19T11:49:41.309Z,1225
2017-01-19T11:50:41.363Z,1210
2017-01-19T11:51:41.422Z,1225
2017-01-19T11:52:41.492Z,1200
2017-01-19T11:53:41.548Z,1190
2017-01-19T11:54:41.599Z,1280
2017-01-19T11:55:41.642Z,1375
2017-01-19T11:56:41.706Z,1180
2017-01-19T11:57:41.773Z,870
2017-01-19T11:58:41.828Z,695
2017-01-19T11:59:41.883Z,725
2017-01-19T12:00:41.943Z,990
2017-01-19T12:01:41.978Z,1370
2017-01-19T12:02:42.050Z,1495
2017-01-19T12:03:42.104Z,1355
2017-01-19T12:04:42.172Z,1285
2017-01-19T12:05:42.234Z,1300
2017-01-19T12:06:42.274Z,1295
2017-01-19T12:07:42.325Z,1200
2017-01-19T12:08:42.398Z,1240
2017-01-19T12:09:42.450Z,1295
2017-01-19T12:10:42.545Z,1280
2017-01-19T12:11:42.558Z,1250
2017-01-19T12:12:42.616Z,1255
2017-01-19T12:13:42.661Z,1260
2017-01-19T12:14:42.722Z,1280
2017-01-19T12:15:42.790Z,1295
2017-01-19T12:16:42.842Z,1290
2017-01-19T12:17:42.897Z,1335
2017-01-19T12:18:42.963Z,1310
2017-01-19T12:19:43.017Z,1305
2017-01-19T12:20:43.064Z,1285
2017-01-19T12:21:43.116Z,1240
2017-01-19T12:22:43.211Z,1265
2017-01-19T12:23:43.236Z,1270
2017-01-19T12:24:43.297Z,1255
2017-01-19T12:25:43.334Z,1275
2017-01-19T12:26:43.399Z,1275
2017-01-19T12:27:43.628Z,1260
2017-01-19T12:28:43.518Z,1295
2017-01-19T12:29:43.579Z,1305
2017-01-19T12:30:43.629Z,1295
2017-01-19T12:31:43.692Z,1285
2017-01-19T12:32:43.750Z,1270
2017-01-19T12:33:43.829Z,1280
2017-01-19T12:34:43.865Z,1230
2017-01-19T12:35:43.927Z,1205
2017-01-19T12:36:43.976Z,1225
2017-01-19T12:37:44.025Z,1240
2017-01-19T12:38:44.082Z,1240
2017-01-19T12:39:44.140Z,1220
2017-01-19T12:40:44.208Z,1255
2017-01-19T12:41:44.260Z,1290
2017-01-19T12:42:44.315Z,1270
2017-01-19T12:43:44.364Z,1235
2017-01-19T12:44:44.422Z,1225
2017-01-19T12:45:44.487Z,1260
2017-01-19T12:46:44.538Z,1265
2017-01-19T12:47:44.578Z,1260
2017-01-19T12:48:44.647Z,1235
2017-01-19T12:49:44.714Z,1235
2017-01-19T12:50:44.761Z,1255
2017-01-19T12:51:44.827Z,1245
2017-01-19T12:52:44.880Z,1185
2017-01-19T12:53:44.930Z,1135
2017-01-19T12:54:44.990Z,1135
2017-01-19T12:55:45.057Z,1155
2017-01-19T12:56:45.486Z,1190
2017-01-19T12:57:45.156Z,1155
2017-01-19T12:58:45.225Z,1165
2017-01-19T12:59:45.299Z,1205
2017-01-19T13:00:45.330Z,1170
2017-01-19T13:01:45.399Z,1180
2017-01-19T13:02:45.434Z,1225
2017-01-19T13:03:45.486Z,1205
2017-01-19T13:04:45.553Z,1190
2017-01-19T13:05:45.614Z,1180
2017-01-19T13:06:45.674Z,1190
2017-01-19T13:07:45.709Z,1165
2017-01-19T13:08:45.798Z,1170
2017-01-19T13:09:45.872Z,1165
2017-01-19T13:10:45.895Z,1095
2017-01-19T13:11:45.950Z,1095
2017-01-19T13:12:45.999Z,1105
2017-01-19T13:13:46.069Z,1150
2017-01-19T13:14:46.124Z,1265
2017-01-19T13:15:46.209Z,980
2017-01-19T13:16:46.235Z,600
2017-01-19T13:17:46.324Z,530
2017-01-19T13:18:46.330Z,535
2017-01-19T13:19:46.411Z,585
2017-01-19T13:20:46.463Z,910
2017-01-19T13:21:46.522Z,1315
2017-01-19T13:22:46.573Z,1300
2017-01-19T13:23:46.619Z,1235
2017-01-19T13:24:46.680Z,1230
2017-01-19T13:25:46.741Z,1285
2017-01-19T13:26:46.802Z,1115
2017-01-19T13:27:46.843Z,670
2017-01-19T13:28:46.905Z,500
2017-01-19T13:29:46.957Z,475
2017-01-19T13:30:47.013Z,465
2017-01-19T13:31:47.063Z,460
2017-01-19T13:32:47.145Z,460
2017-01-19T13:33:47.182Z,470
2017-01-19T13:34:47.237Z,490
2017-01-19T13:35:47.312Z,530
2017-01-19T13:36:47.342Z,805
2017-01-19T13:37:47.412Z,1180
2017-01-19T13:38:47.474Z,1185
2017-01-19T13:39:47.534Z,1105
2017-01-19T13:40:47.576Z,1035
2017-01-19T13:41:47.622Z,1045
2017-01-19T13:42:47.716Z,1040
2017-01-19T13:43:47.748Z,965
2017-01-19T13:44:47.804Z,920
2017-01-19T13:45:47.858Z,830
2017-01-19T13:46:47.913Z,905
2017-01-19T13:47:47.969Z,980
2017-01-19T13:48:48.024Z,900
2017-01-19T13:49:48.086Z,935
2017-01-19T13:50:48.131Z,1055
2017-01-19T13:51:48.192Z,1185
2017-01-19T13:52:48.252Z,905
2017-01-19T13:53:48.315Z,520
2017-01-19T13:54:48.362Z,460
2017-01-19T13:55:48.451Z,450
2017-01-19T13:56:48.466Z,455
2017-01-19T13:57:48.542Z,465
2017-01-19T13:58:48.584Z,480
2017-01-19T13:59:48.632Z,545
2017-01-19T14:00:48.691Z,885
2017-01-19T14:01:49.140Z,1120
2017-01-19T14:02:48.815Z,945
2017-01-19T14:03:48.865Z,710
2017-01-19T14:04:48.918Z,645
2017-01-19T14:05:48.981Z,830
2017-01-19T14:06:49.032Z,990
2017-01-19T14:07:49.087Z,930
2017-01-19T14:08:49.144Z,870
2017-01-19T14:09:49.197Z,930
2017-01-19T14:10:49.242Z,975
2017-01-19T14:11:49.302Z,920
2017-01-19T14:12:49.390Z,870
2017-01-19T14:13:49.435Z,905
2017-01-19T14:14:49.465Z,930